sensor_id;sensor_type;location;lat;lon;timestamp;P1;durP1;ratioP1;P2;durP2;ratioP2
3801;SDS011;1916;51.798;12.246;2022-12-24T00:01:20;16.67;;;9.70;;
3801;SDS011;1916;51.798;12.246;2022-12-24T00:03:22;16.00;;;9.50;;
3801;SDS011;1916;51.798;12.246;2022-12-24T00:05:25;19.07;;;10.27;;
3801;SDS011;1916;51.798;12.246;2022-12-24T00:07:28;13.40;;;8.90;;
3801;SDS011;1916;51.798;12.246;2022-12-24T00:09:30;15.90;;;10.10;;
3801;SDS011;1916;51.798;12.246;2022-12-24T00:11:32;14.13;;;9.40;;
3801;SDS011;1916;51.798;12.246;2022-12-24T00:13:34;12.50;;;9.57;;
3801;SDS011;1916;51.798;12.246;2022-12-24T00:15:36;15.17;;;9.60;;
3801;SDS011;1916;51.798;12.246;2022-12-24T00:17:38;11.93;;;8.87;;
3801;SDS011;1916;51.798;12.246;2022-12-24T00:19:40;12.97;;;8.80;;
3801;SDS011;1916;51.798;12.246;2022-12-24T00:21:43;11.83;;;8.63;;
3801;SDS011;1916;51.798;12.246;2022-12-24T00:23:45;12.77;;;8.23;;
3801;SDS011;1916;51.798;12.246;2022-12-24T00:25:48;15.63;;;8.57;;
3801;SDS011;1916;51.798;12.246;2022-12-24T00:27:50;17.53;;;8.33;;
3801;SDS011;1916;51.798;12.246;2022-12-24T00:29:52;13.90;;;9.60;;
3801;SDS011;1916;51.798;12.246;2022-12-24T00:31:54;17.23;;;9.90;;
3801;SDS011;1916;51.798;12.246;2022-12-24T00:33:56;18.83;;;10.03;;
3801;SDS011;1916;51.798;12.246;2022-12-24T00:35:58;21.30;;;10.97;;
3801;SDS011;1916;51.798;12.246;2022-12-24T00:38:00;23.60;;;12.50;;
3801;SDS011;1916;51.798;12.246;2022-12-24T00:40:04;28.87;;;12.90;;
3801;SDS011;1916;51.798;12.246;2022-12-24T00:42:07;20.20;;;11.90;;
3801;SDS011;1916;51.798;12.246;2022-12-24T00:44:09;24.03;;;12.90;;
3801;SDS011;1916;51.798;12.246;2022-12-24T00:46:11;30.07;;;14.60;;
3801;SDS011;1916;51.798;12.246;2022-12-24T00:48:13;32.20;;;15.33;;
3801;SDS011;1916;51.798;12.246;2022-12-24T00:50:16;39.70;;;17.50;;
3801;SDS011;1916;51.798;12.246;2022-12-24T00:52:17;33.37;;;16.70;;
3801;SDS011;1916;51.798;12.246;2022-12-24T00:54:19;35.50;;;18.93;;
3801;SDS011;1916;51.798;12.246;2022-12-24T00:56:21;41.30;;;17.80;;
3801;SDS011;1916;51.798;12.246;2022-12-24T00:58:24;45.77;;;18.50;;
3801;SDS011;1916;51.798;12.246;2022-12-24T01:00:26;36.03;;;16.63;;
3801;SDS011;1916;51.798;12.246;2022-12-24T01:02:28;30.80;;;16.03;;
3801;SDS011;1916;51.798;12.246;2022-12-24T01:04:30;48.13;;;18.50;;
3801;SDS011;1916;51.798;12.246;2022-12-24T01:06:51;48.97;;;20.87;;
3801;SDS011;1916;51.798;12.246;2022-12-24T01:08:53;44.60;;;20.07;;
3801;SDS011;1916;51.798;12.246;2022-12-24T01:10:55;65.63;;;21.50;;
3801;SDS011;1916;51.798;12.246;2022-12-24T01:13:00;41.73;;;18.53;;
3801;SDS011;1916;51.798;12.246;2022-12-24T01:15:03;52.03;;;19.90;;
3801;SDS011;1916;51.798;12.246;2022-12-24T01:17:06;48.70;;;20.10;;
3801;SDS011;1916;51.798;12.246;2022-12-24T01:19:08;48.07;;;20.60;;
3801;SDS011;1916;51.798;12.246;2022-12-24T01:21:10;45.30;;;18.47;;
3801;SDS011;1916;51.798;12.246;2022-12-24T01:23:12;48.00;;;20.20;;
3801;SDS011;1916;51.798;12.246;2022-12-24T01:25:14;40.53;;;19.80;;
3801;SDS011;1916;51.798;12.246;2022-12-24T01:27:16;41.77;;;18.70;;
3801;SDS011;1916;51.798;12.246;2022-12-24T01:29:19;38.83;;;18.53;;
3801;SDS011;1916;51.798;12.246;2022-12-24T01:31:21;40.90;;;20.30;;
3801;SDS011;1916;51.798;12.246;2022-12-24T01:33:23;41.30;;;18.30;;
3801;SDS011;1916;51.798;12.246;2022-12-24T01:35:25;47.47;;;21.43;;
3801;SDS011;1916;51.798;12.246;2022-12-24T01:37:27;38.83;;;20.07;;
3801;SDS011;1916;51.798;12.246;2022-12-24T01:39:29;46.37;;;19.77;;
3801;SDS011;1916;51.798;12.246;2022-12-24T01:41:31;34.73;;;18.67;;
3801;SDS011;1916;51.798;12.246;2022-12-24T01:43:52;41.13;;;19.40;;
3801;SDS011;1916;51.798;12.246;2022-12-24T01:45:58;45.13;;;20.57;;
3801;SDS011;1916;51.798;12.246;2022-12-24T01:48:00;41.60;;;19.43;;
3801;SDS011;1916;51.798;12.246;2022-12-24T01:50:08;46.03;;;21.00;;
3801;SDS011;1916;51.798;12.246;2022-12-24T01:52:18;43.97;;;20.63;;
3801;SDS011;1916;51.798;12.246;2022-12-24T01:54:35;54.47;;;22.27;;
3801;SDS011;1916;51.798;12.246;2022-12-24T01:56:40;43.03;;;22.20;;
3801;SDS011;1916;51.798;12.246;2022-12-24T01:58:49;45.40;;;22.97;;
3801;SDS011;1916;51.798;12.246;2022-12-24T02:00:53;39.90;;;21.20;;
3801;SDS011;1916;51.798;12.246;2022-12-24T02:02:55;48.70;;;22.40;;
3801;SDS011;1916;51.798;12.246;2022-12-24T02:07:18;40.03;;;21.00;;
3801;SDS011;1916;51.798;12.246;2022-12-24T02:09:20;35.07;;;19.30;;
3801;SDS011;1916;51.798;12.246;2022-12-24T02:11:22;32.00;;;18.40;;
3801;SDS011;1916;51.798;12.246;2022-12-24T02:13:27;41.83;;;19.13;;
3801;SDS011;1916;51.798;12.246;2022-12-24T02:15:32;32.87;;;19.07;;
3801;SDS011;1916;51.798;12.246;2022-12-24T02:22:11;34.97;;;19.43;;
3801;SDS011;1916;51.798;12.246;2022-12-24T02:26:49;33.83;;;18.40;;
3801;SDS011;1916;51.798;12.246;2022-12-24T02:29:18;35.37;;;19.80;;
3801;SDS011;1916;51.798;12.246;2022-12-24T02:31:52;31.57;;;17.70;;
3801;SDS011;1916;51.798;12.246;2022-12-24T02:34:03;35.60;;;18.80;;
3801;SDS011;1916;51.798;12.246;2022-12-24T02:38:47;33.40;;;19.33;;
3801;SDS011;1916;51.798;12.246;2022-12-24T02:40:54;31.53;;;18.63;;
3801;SDS011;1916;51.798;12.246;2022-12-24T02:43:00;38.30;;;19.43;;
3801;SDS011;1916;51.798;12.246;2022-12-24T02:45:09;37.97;;;20.33;;
3801;SDS011;1916;51.798;12.246;2022-12-24T02:47:14;36.37;;;19.33;;
3801;SDS011;1916;51.798;12.246;2022-12-24T02:49:18;41.03;;;20.20;;
3801;SDS011;1916;51.798;12.246;2022-12-24T02:51:21;40.80;;;22.23;;
3801;SDS011;1916;51.798;12.246;2022-12-24T02:53:24;36.47;;;19.40;;
3801;SDS011;1916;51.798;12.246;2022-12-24T02:59:58;35.20;;;19.23;;
3801;SDS011;1916;51.798;12.246;2022-12-24T03:02:25;36.53;;;19.67;;
3801;SDS011;1916;51.798;12.246;2022-12-24T03:06:59;42.77;;;19.60;;
3801;SDS011;1916;51.798;12.246;2022-12-24T03:11:41;29.53;;;17.47;;
3801;SDS011;1916;51.798;12.246;2022-12-24T03:13:49;33.27;;;18.03;;
3801;SDS011;1916;51.798;12.246;2022-12-24T03:15:52;30.57;;;16.17;;
3801;SDS011;1916;51.798;12.246;2022-12-24T03:17:56;35.20;;;17.30;;
3801;SDS011;1916;51.798;12.246;2022-12-24T03:19:59;39.93;;;19.00;;
3801;SDS011;1916;51.798;12.246;2022-12-24T03:22:01;40.93;;;19.17;;
3801;SDS011;1916;51.798;12.246;2022-12-24T03:24:05;33.23;;;18.73;;
3801;SDS011;1916;51.798;12.246;2022-12-24T03:26:08;33.23;;;19.17;;
3801;SDS011;1916;51.798;12.246;2022-12-24T03:28:13;33.73;;;17.33;;
3801;SDS011;1916;51.798;12.246;2022-12-24T03:30:16;33.10;;;17.90;;
3801;SDS011;1916;51.798;12.246;2022-12-24T03:32:29;36.07;;;17.67;;
3801;SDS011;1916;51.798;12.246;2022-12-24T03:34:32;32.90;;;17.80;;
3801;SDS011;1916;51.798;12.246;2022-12-24T03:36:34;33.13;;;16.00;;
3801;SDS011;1916;51.798;12.246;2022-12-24T03:38:36;28.20;;;16.20;;
3801;SDS011;1916;51.798;12.246;2022-12-24T03:40:38;29.63;;;16.77;;
3801;SDS011;1916;51.798;12.246;2022-12-24T03:42:40;32.63;;;15.63;;
3801;SDS011;1916;51.798;12.246;2022-12-24T03:44:42;33.93;;;18.07;;
3801;SDS011;1916;51.798;12.246;2022-12-24T03:46:44;34.80;;;17.17;;
3801;SDS011;1916;51.798;12.246;2022-12-24T03:48:46;31.20;;;17.67;;
3801;SDS011;1916;51.798;12.246;2022-12-24T03:50:48;35.30;;;17.33;;
3801;SDS011;1916;51.798;12.246;2022-12-24T03:52:50;31.20;;;16.60;;
3801;SDS011;1916;51.798;12.246;2022-12-24T03:54:52;29.07;;;15.87;;
3801;SDS011;1916;51.798;12.246;2022-12-24T03:56:54;30.53;;;17.13;;
3801;SDS011;1916;51.798;12.246;2022-12-24T03:58:57;33.00;;;18.93;;
3801;SDS011;1916;51.798;12.246;2022-12-24T04:00:59;42.47;;;20.53;;
3801;SDS011;1916;51.798;12.246;2022-12-24T04:03:01;36.57;;;18.17;;
3801;SDS011;1916;51.798;12.246;2022-12-24T04:05:03;37.30;;;18.30;;
3801;SDS011;1916;51.798;12.246;2022-12-24T04:07:05;37.10;;;18.60;;
3801;SDS011;1916;51.798;12.246;2022-12-24T04:09:07;39.63;;;19.60;;
3801;SDS011;1916;51.798;12.246;2022-12-24T04:11:10;37.90;;;18.67;;
3801;SDS011;1916;51.798;12.246;2022-12-24T04:13:14;40.17;;;20.30;;
3801;SDS011;1916;51.798;12.246;2022-12-24T04:15:16;33.93;;;17.53;;
3801;SDS011;1916;51.798;12.246;2022-12-24T04:17:18;42.10;;;19.57;;
3801;SDS011;1916;51.798;12.246;2022-12-24T04:19:20;37.27;;;19.50;;
3801;SDS011;1916;51.798;12.246;2022-12-24T04:21:22;40.03;;;19.97;;
3801;SDS011;1916;51.798;12.246;2022-12-24T04:23:24;48.80;;;22.47;;
3801;SDS011;1916;51.798;12.246;2022-12-24T04:25:26;41.63;;;20.80;;
3801;SDS011;1916;51.798;12.246;2022-12-24T04:27:28;39.07;;;19.17;;
3801;SDS011;1916;51.798;12.246;2022-12-24T04:29:31;43.50;;;20.47;;
3801;SDS011;1916;51.798;12.246;2022-12-24T04:31:34;41.53;;;20.20;;
3801;SDS011;1916;51.798;12.246;2022-12-24T04:33:36;40.40;;;19.37;;
3801;SDS011;1916;51.798;12.246;2022-12-24T04:35:39;43.53;;;18.67;;
3801;SDS011;1916;51.798;12.246;2022-12-24T04:37:42;45.50;;;20.13;;
3801;SDS011;1916;51.798;12.246;2022-12-24T04:39:43;43.70;;;20.13;;
3801;SDS011;1916;51.798;12.246;2022-12-24T04:41:45;47.43;;;20.67;;
3801;SDS011;1916;51.798;12.246;2022-12-24T04:43:48;52.90;;;21.80;;
3801;SDS011;1916;51.798;12.246;2022-12-24T04:45:51;44.00;;;20.90;;
3801;SDS011;1916;51.798;12.246;2022-12-24T04:47:53;46.97;;;21.03;;
3801;SDS011;1916;51.798;12.246;2022-12-24T04:49:55;40.97;;;19.83;;
3801;SDS011;1916;51.798;12.246;2022-12-24T04:51:57;40.63;;;20.80;;
3801;SDS011;1916;51.798;12.246;2022-12-24T04:53:59;44.50;;;21.77;;
3801;SDS011;1916;51.798;12.246;2022-12-24T04:56:01;46.00;;;20.70;;
3801;SDS011;1916;51.798;12.246;2022-12-24T04:58:03;46.47;;;21.03;;
3801;SDS011;1916;51.798;12.246;2022-12-24T05:00:06;42.87;;;20.23;;
3801;SDS011;1916;51.798;12.246;2022-12-24T05:02:09;42.53;;;19.63;;
3801;SDS011;1916;51.798;12.246;2022-12-24T05:04:11;46.37;;;20.80;;
3801;SDS011;1916;51.798;12.246;2022-12-24T05:06:15;51.33;;;22.23;;
3801;SDS011;1916;51.798;12.246;2022-12-24T05:08:20;46.10;;;21.17;;
3801;SDS011;1916;51.798;12.246;2022-12-24T05:10:22;45.33;;;19.80;;
3801;SDS011;1916;51.798;12.246;2022-12-24T05:12:24;48.47;;;20.97;;
3801;SDS011;1916;51.798;12.246;2022-12-24T05:14:26;40.47;;;19.63;;
3801;SDS011;1916;51.798;12.246;2022-12-24T05:16:28;40.53;;;20.10;;
3801;SDS011;1916;51.798;12.246;2022-12-24T05:18:30;45.10;;;23.50;;
3801;SDS011;1916;51.798;12.246;2022-12-24T05:20:33;47.57;;;23.57;;
3801;SDS011;1916;51.798;12.246;2022-12-24T05:22:35;39.47;;;21.03;;
3801;SDS011;1916;51.798;12.246;2022-12-24T05:24:56;33.93;;;17.17;;
3801;SDS011;1916;51.798;12.246;2022-12-24T05:27:16;37.40;;;18.87;;
3801;SDS011;1916;51.798;12.246;2022-12-24T05:29:18;50.00;;;19.03;;
3801;SDS011;1916;51.798;12.246;2022-12-24T05:31:21;46.93;;;20.80;;
3801;SDS011;1916;51.798;12.246;2022-12-24T05:33:24;42.30;;;17.63;;
3801;SDS011;1916;51.798;12.246;2022-12-24T05:35:26;41.53;;;18.40;;
3801;SDS011;1916;51.798;12.246;2022-12-24T05:37:28;46.60;;;19.13;;
3801;SDS011;1916;51.798;12.246;2022-12-24T05:39:30;42.00;;;19.37;;
3801;SDS011;1916;51.798;12.246;2022-12-24T05:41:32;49.50;;;19.63;;
3801;SDS011;1916;51.798;12.246;2022-12-24T05:43:34;40.83;;;19.00;;
3801;SDS011;1916;51.798;12.246;2022-12-24T05:45:37;33.47;;;18.33;;
3801;SDS011;1916;51.798;12.246;2022-12-24T05:47:39;139.73;;;21.27;;
3801;SDS011;1916;51.798;12.246;2022-12-24T05:49:44;63.10;;;17.63;;
3801;SDS011;1916;51.798;12.246;2022-12-24T05:51:46;32.03;;;17.50;;
3801;SDS011;1916;51.798;12.246;2022-12-24T05:53:48;33.43;;;17.57;;
3801;SDS011;1916;51.798;12.246;2022-12-24T05:55:51;32.10;;;15.60;;
3801;SDS011;1916;51.798;12.246;2022-12-24T05:57:53;35.50;;;15.77;;
3801;SDS011;1916;51.798;12.246;2022-12-24T05:59:55;30.63;;;15.90;;
3801;SDS011;1916;51.798;12.246;2022-12-24T06:01:57;28.93;;;13.77;;
3801;SDS011;1916;51.798;12.246;2022-12-24T06:04:00;29.87;;;13.60;;
3801;SDS011;1916;51.798;12.246;2022-12-24T06:08:07;24.27;;;10.77;;
3801;SDS011;1916;51.798;12.246;2022-12-24T06:10:09;20.97;;;11.10;;
3801;SDS011;1916;51.798;12.246;2022-12-24T06:12:11;24.17;;;9.93;;
3801;SDS011;1916;51.798;12.246;2022-12-24T06:14:14;18.80;;;9.70;;
3801;SDS011;1916;51.798;12.246;2022-12-24T06:16:16;15.10;;;7.70;;
3801;SDS011;1916;51.798;12.246;2022-12-24T06:18:19;32.50;;;7.83;;
3801;SDS011;1916;51.798;12.246;2022-12-24T06:20:21;22.67;;;7.60;;
3801;SDS011;1916;51.798;12.246;2022-12-24T06:22:23;13.70;;;6.73;;
3801;SDS011;1916;51.798;12.246;2022-12-24T06:24:25;16.23;;;7.40;;
3801;SDS011;1916;51.798;12.246;2022-12-24T06:26:27;14.60;;;6.17;;
3801;SDS011;1916;51.798;12.246;2022-12-24T06:28:30;16.67;;;6.57;;
3801;SDS011;1916;51.798;12.246;2022-12-24T06:30:33;14.53;;;5.80;;
3801;SDS011;1916;51.798;12.246;2022-12-24T06:32:35;14.17;;;6.33;;
3801;SDS011;1916;51.798;12.246;2022-12-24T06:34:38;13.33;;;5.30;;
3801;SDS011;1916;51.798;12.246;2022-12-24T06:36:40;16.77;;;6.00;;
3801;SDS011;1916;51.798;12.246;2022-12-24T06:38:42;20.53;;;5.77;;
3801;SDS011;1916;51.798;12.246;2022-12-24T06:40:45;14.50;;;6.80;;
3801;SDS011;1916;51.798;12.246;2022-12-24T06:42:47;14.60;;;6.20;;
3801;SDS011;1916;51.798;12.246;2022-12-24T06:44:49;21.43;;;6.57;;
3801;SDS011;1916;51.798;12.246;2022-12-24T06:46:51;26.60;;;6.70;;
3801;SDS011;1916;51.798;12.246;2022-12-24T06:48:53;16.20;;;6.80;;
3801;SDS011;1916;51.798;12.246;2022-12-24T06:50:55;38.83;;;8.30;;
3801;SDS011;1916;51.798;12.246;2022-12-24T06:52:58;12.77;;;6.63;;
3801;SDS011;1916;51.798;12.246;2022-12-24T06:55:00;15.07;;;6.40;;
3801;SDS011;1916;51.798;12.246;2022-12-24T06:57:04;18.97;;;7.60;;
3801;SDS011;1916;51.798;12.246;2022-12-24T06:59:08;18.87;;;7.80;;
3801;SDS011;1916;51.798;12.246;2022-12-24T07:01:13;30.67;;;6.73;;
3801;SDS011;1916;51.798;12.246;2022-12-24T07:03:16;17.30;;;6.10;;
3801;SDS011;1916;51.798;12.246;2022-12-24T07:05:18;15.63;;;6.03;;
3801;SDS011;1916;51.798;12.246;2022-12-24T07:07:20;18.77;;;6.00;;
3801;SDS011;1916;51.798;12.246;2022-12-24T07:09:22;10.73;;;4.60;;
3801;SDS011;1916;51.798;12.246;2022-12-24T07:11:25;19.83;;;5.30;;
3801;SDS011;1916;51.798;12.246;2022-12-24T07:13:27;15.70;;;5.90;;
3801;SDS011;1916;51.798;12.246;2022-12-24T07:15:29;10.40;;;5.30;;
3801;SDS011;1916;51.798;12.246;2022-12-24T07:17:32;16.30;;;8.37;;
3801;SDS011;1916;51.798;12.246;2022-12-24T07:19:34;20.50;;;9.80;;
3801;SDS011;1916;51.798;12.246;2022-12-24T07:21:36;19.53;;;8.87;;
3801;SDS011;1916;51.798;12.246;2022-12-24T07:23:38;13.37;;;8.40;;
3801;SDS011;1916;51.798;12.246;2022-12-24T07:25:41;17.23;;;10.13;;
3801;SDS011;1916;51.798;12.246;2022-12-24T07:27:43;41.07;;;23.70;;
3801;SDS011;1916;51.798;12.246;2022-12-24T07:29:45;26.73;;;14.87;;
3801;SDS011;1916;51.798;12.246;2022-12-24T07:31:48;19.83;;;8.47;;
3801;SDS011;1916;51.798;12.246;2022-12-24T07:33:50;19.87;;;7.10;;
3801;SDS011;1916;51.798;12.246;2022-12-24T07:36:02;21.10;;;7.93;;
3801;SDS011;1916;51.798;12.246;2022-12-24T07:38:06;16.73;;;8.00;;
3801;SDS011;1916;51.798;12.246;2022-12-24T07:40:08;20.40;;;7.47;;
3801;SDS011;1916;51.798;12.246;2022-12-24T07:42:10;20.90;;;7.77;;
3801;SDS011;1916;51.798;12.246;2022-12-24T07:44:13;30.70;;;16.37;;
3801;SDS011;1916;51.798;12.246;2022-12-24T07:46:15;14.00;;;6.60;;
3801;SDS011;1916;51.798;12.246;2022-12-24T07:48:18;38.17;;;17.20;;
3801;SDS011;1916;51.798;12.246;2022-12-24T07:50:20;50.10;;;18.27;;
3801;SDS011;1916;51.798;12.246;2022-12-24T07:52:22;35.93;;;18.07;;
3801;SDS011;1916;51.798;12.246;2022-12-24T07:54:24;26.80;;;8.80;;
3801;SDS011;1916;51.798;12.246;2022-12-24T07:56:26;12.70;;;5.07;;
3801;SDS011;1916;51.798;12.246;2022-12-24T07:58:28;28.10;;;7.20;;
3801;SDS011;1916;51.798;12.246;2022-12-24T08:00:30;23.33;;;5.83;;
3801;SDS011;1916;51.798;12.246;2022-12-24T08:02:32;13.80;;;5.60;;
3801;SDS011;1916;51.798;12.246;2022-12-24T08:04:34;13.40;;;5.87;;
3801;SDS011;1916;51.798;12.246;2022-12-24T08:06:37;14.37;;;5.00;;
3801;SDS011;1916;51.798;12.246;2022-12-24T08:08:39;16.23;;;6.00;;
3801;SDS011;1916;51.798;12.246;2022-12-24T08:10:41;14.93;;;4.77;;
3801;SDS011;1916;51.798;12.246;2022-12-24T08:12:44;17.23;;;5.97;;
3801;SDS011;1916;51.798;12.246;2022-12-24T08:14:48;19.60;;;5.63;;
3801;SDS011;1916;51.798;12.246;2022-12-24T08:16:51;14.23;;;7.40;;
3801;SDS011;1916;51.798;12.246;2022-12-24T08:18:54;16.73;;;7.37;;
3801;SDS011;1916;51.798;12.246;2022-12-24T08:20:56;14.47;;;5.03;;
3801;SDS011;1916;51.798;12.246;2022-12-24T08:22:58;13.53;;;4.40;;
3801;SDS011;1916;51.798;12.246;2022-12-24T08:25:00;16.70;;;6.10;;
3801;SDS011;1916;51.798;12.246;2022-12-24T08:27:02;16.47;;;5.53;;
3801;SDS011;1916;51.798;12.246;2022-12-24T08:29:04;17.27;;;5.20;;
3801;SDS011;1916;51.798;12.246;2022-12-24T08:31:06;10.80;;;4.10;;
3801;SDS011;1916;51.798;12.246;2022-12-24T08:33:08;13.10;;;5.30;;
3801;SDS011;1916;51.798;12.246;2022-12-24T08:35:10;13.23;;;5.30;;
3801;SDS011;1916;51.798;12.246;2022-12-24T08:37:12;13.03;;;8.33;;
3801;SDS011;1916;51.798;12.246;2022-12-24T08:39:14;23.30;;;9.10;;
3801;SDS011;1916;51.798;12.246;2022-12-24T08:41:16;15.40;;;9.13;;
3801;SDS011;1916;51.798;12.246;2022-12-24T08:43:19;19.37;;;7.17;;
3801;SDS011;1916;51.798;12.246;2022-12-24T08:45:21;21.07;;;5.70;;
3801;SDS011;1916;51.798;12.246;2022-12-24T08:47:23;17.80;;;5.70;;
3801;SDS011;1916;51.798;12.246;2022-12-24T08:49:25;14.77;;;5.60;;
3801;SDS011;1916;51.798;12.246;2022-12-24T08:51:27;19.57;;;4.83;;
3801;SDS011;1916;51.798;12.246;2022-12-24T08:53:29;10.50;;;5.40;;
3801;SDS011;1916;51.798;12.246;2022-12-24T08:55:31;9.60;;;5.77;;
3801;SDS011;1916;51.798;12.246;2022-12-24T08:57:36;23.90;;;7.57;;
3801;SDS011;1916;51.798;12.246;2022-12-24T08:59:38;25.83;;;6.97;;
3801;SDS011;1916;51.798;12.246;2022-12-24T09:01:40;14.80;;;5.20;;
3801;SDS011;1916;51.798;12.246;2022-12-24T09:03:43;17.70;;;7.23;;
3801;SDS011;1916;51.798;12.246;2022-12-24T09:05:45;15.37;;;6.60;;
3801;SDS011;1916;51.798;12.246;2022-12-24T09:07:48;13.60;;;7.20;;
3801;SDS011;1916;51.798;12.246;2022-12-24T09:09:50;18.87;;;6.83;;
3801;SDS011;1916;51.798;12.246;2022-12-24T09:11:52;24.27;;;6.43;;
3801;SDS011;1916;51.798;12.246;2022-12-24T09:13:54;18.77;;;6.63;;
3801;SDS011;1916;51.798;12.246;2022-12-24T09:15:56;18.33;;;5.50;;
3801;SDS011;1916;51.798;12.246;2022-12-24T09:17:58;24.20;;;5.87;;
3801;SDS011;1916;51.798;12.246;2022-12-24T09:20:02;13.83;;;4.47;;
3801;SDS011;1916;51.798;12.246;2022-12-24T09:22:05;12.33;;;4.37;;
3801;SDS011;1916;51.798;12.246;2022-12-24T09:24:07;18.10;;;5.43;;
3801;SDS011;1916;51.798;12.246;2022-12-24T09:26:30;11.30;;;4.37;;
3801;SDS011;1916;51.798;12.246;2022-12-24T09:28:32;17.20;;;5.97;;
3801;SDS011;1916;51.798;12.246;2022-12-24T09:30:35;23.00;;;5.10;;
3801;SDS011;1916;51.798;12.246;2022-12-24T09:32:37;24.23;;;5.53;;
3801;SDS011;1916;51.798;12.246;2022-12-24T09:34:39;19.37;;;5.57;;
3801;SDS011;1916;51.798;12.246;2022-12-24T09:36:41;9.57;;;4.00;;
3801;SDS011;1916;51.798;12.246;2022-12-24T09:38:44;16.10;;;4.97;;
3801;SDS011;1916;51.798;12.246;2022-12-24T09:40:46;10.87;;;4.80;;
3801;SDS011;1916;51.798;12.246;2022-12-24T09:42:52;11.10;;;3.83;;
3801;SDS011;1916;51.798;12.246;2022-12-24T09:45:00;16.17;;;4.40;;
3801;SDS011;1916;51.798;12.246;2022-12-24T09:49:40;12.87;;;4.37;;
3801;SDS011;1916;51.798;12.246;2022-12-24T09:51:44;16.40;;;4.87;;
3801;SDS011;1916;51.798;12.246;2022-12-24T09:53:52;10.27;;;4.13;;
3801;SDS011;1916;51.798;12.246;2022-12-24T09:55:57;14.57;;;4.50;;
3801;SDS011;1916;51.798;12.246;2022-12-24T09:58:03;12.80;;;4.33;;
3801;SDS011;1916;51.798;12.246;2022-12-24T10:00:14;16.93;;;4.30;;
3801;SDS011;1916;51.798;12.246;2022-12-24T10:02:28;12.53;;;4.50;;
3801;SDS011;1916;51.798;12.246;2022-12-24T10:04:30;12.03;;;3.80;;
3801;SDS011;1916;51.798;12.246;2022-12-24T10:09:22;22.93;;;5.40;;
3801;SDS011;1916;51.798;12.246;2022-12-24T10:11:35;10.50;;;5.43;;
3801;SDS011;1916;51.798;12.246;2022-12-24T10:13:52;20.00;;;5.30;;
3801;SDS011;1916;51.798;12.246;2022-12-24T10:16:22;17.00;;;4.73;;
3801;SDS011;1916;51.798;12.246;2022-12-24T10:27:14;13.30;;;4.70;;
3801;SDS011;1916;51.798;12.246;2022-12-24T10:29:18;15.33;;;4.80;;
3801;SDS011;1916;51.798;12.246;2022-12-24T10:31:22;14.40;;;5.23;;
3801;SDS011;1916;51.798;12.246;2022-12-24T10:33:32;14.33;;;6.03;;
3801;SDS011;1916;51.798;12.246;2022-12-24T10:35:41;20.90;;;5.03;;
3801;SDS011;1916;51.798;12.246;2022-12-24T10:37:47;23.13;;;7.00;;
3801;SDS011;1916;51.798;12.246;2022-12-24T10:39:51;16.00;;;5.87;;
3801;SDS011;1916;51.798;12.246;2022-12-24T10:41:54;14.77;;;6.40;;
3801;SDS011;1916;51.798;12.246;2022-12-24T10:43:59;18.60;;;5.03;;
3801;SDS011;1916;51.798;12.246;2022-12-24T10:46:02;18.07;;;5.43;;
3801;SDS011;1916;51.798;12.246;2022-12-24T10:48:08;17.30;;;6.27;;
3801;SDS011;1916;51.798;12.246;2022-12-24T10:50:21;22.43;;;8.07;;
3801;SDS011;1916;51.798;12.246;2022-12-24T10:52:31;17.50;;;9.93;;
3801;SDS011;1916;51.798;12.246;2022-12-24T10:54:34;18.13;;;5.47;;
3801;SDS011;1916;51.798;12.246;2022-12-24T10:56:41;24.77;;;7.50;;
3801;SDS011;1916;51.798;12.246;2022-12-24T10:58:46;17.97;;;5.60;;
3801;SDS011;1916;51.798;12.246;2022-12-24T11:00:52;18.40;;;5.33;;
3801;SDS011;1916;51.798;12.246;2022-12-24T11:03:05;14.03;;;4.53;;
3801;SDS011;1916;51.798;12.246;2022-12-24T11:05:30;21.20;;;5.47;;
3801;SDS011;1916;51.798;12.246;2022-12-24T11:07:34;15.60;;;4.60;;
3801;SDS011;1916;51.798;12.246;2022-12-24T11:09:39;16.33;;;5.37;;
3801;SDS011;1916;51.798;12.246;2022-12-24T11:11:42;17.63;;;4.13;;
3801;SDS011;1916;51.798;12.246;2022-12-24T11:18:31;14.50;;;4.87;;
3801;SDS011;1916;51.798;12.246;2022-12-24T11:20:35;15.80;;;4.93;;
3801;SDS011;1916;51.798;12.246;2022-12-24T11:22:37;14.97;;;4.37;;
3801;SDS011;1916;51.798;12.246;2022-12-24T11:24:39;12.37;;;5.50;;
3801;SDS011;1916;51.798;12.246;2022-12-24T11:26:48;16.33;;;4.70;;
3801;SDS011;1916;51.798;12.246;2022-12-24T11:29:05;11.83;;;4.00;;
3801;SDS011;1916;51.798;12.246;2022-12-24T11:31:18;13.77;;;4.60;;
3801;SDS011;1916;51.798;12.246;2022-12-24T11:33:21;20.07;;;6.50;;
3801;SDS011;1916;51.798;12.246;2022-12-24T11:35:23;13.47;;;3.83;;
3801;SDS011;1916;51.798;12.246;2022-12-24T11:37:27;13.30;;;4.60;;
3801;SDS011;1916;51.798;12.246;2022-12-24T11:39:30;13.60;;;4.80;;
3801;SDS011;1916;51.798;12.246;2022-12-24T11:41:39;11.50;;;3.97;;
3801;SDS011;1916;51.798;12.246;2022-12-24T11:43:45;18.67;;;4.50;;
3801;SDS011;1916;51.798;12.246;2022-12-24T11:45:54;18.80;;;3.93;;
3801;SDS011;1916;51.798;12.246;2022-12-24T11:47:57;19.80;;;4.90;;
3801;SDS011;1916;51.798;12.246;2022-12-24T11:52:23;20.33;;;5.40;;
3801;SDS011;1916;51.798;12.246;2022-12-24T11:54:26;9.17;;;4.00;;
3801;SDS011;1916;51.798;12.246;2022-12-24T11:56:35;18.23;;;4.87;;
3801;SDS011;1916;51.798;12.246;2022-12-24T12:00:50;16.97;;;5.70;;
3801;SDS011;1916;51.798;12.246;2022-12-24T12:02:53;13.53;;;4.30;;
3801;SDS011;1916;51.798;12.246;2022-12-24T12:05:31;17.20;;;3.83;;
3801;SDS011;1916;51.798;12.246;2022-12-24T12:07:35;14.57;;;4.40;;
3801;SDS011;1916;51.798;12.246;2022-12-24T12:09:43;11.73;;;4.27;;
3801;SDS011;1916;51.798;12.246;2022-12-24T12:11:56;15.43;;;3.97;;
3801;SDS011;1916;51.798;12.246;2022-12-24T12:14:01;8.97;;;3.23;;
3801;SDS011;1916;51.798;12.246;2022-12-24T12:19:02;9.70;;;3.20;;
3801;SDS011;1916;51.798;12.246;2022-12-24T12:21:16;10.23;;;4.70;;
3801;SDS011;1916;51.798;12.246;2022-12-24T12:23:24;12.47;;;4.47;;
3801;SDS011;1916;51.798;12.246;2022-12-24T12:27:34;8.90;;;3.40;;
3801;SDS011;1916;51.798;12.246;2022-12-24T12:29:53;11.93;;;4.67;;
3801;SDS011;1916;51.798;12.246;2022-12-24T12:32:01;15.83;;;4.07;;
3801;SDS011;1916;51.798;12.246;2022-12-24T12:34:12;13.40;;;4.70;;
3801;SDS011;1916;51.798;12.246;2022-12-24T12:36:19;14.70;;;3.50;;
3801;SDS011;1916;51.798;12.246;2022-12-24T12:38:26;7.10;;;3.00;;
3801;SDS011;1916;51.798;12.246;2022-12-24T12:56:53;5.87;;;3.00;;
3801;SDS011;1916;51.798;12.246;2022-12-24T12:59:00;3.73;;;2.60;;
3801;SDS011;1916;51.798;12.246;2022-12-24T13:01:10;9.63;;;3.03;;
3801;SDS011;1916;51.798;12.246;2022-12-24T13:03:42;5.77;;;2.83;;
3801;SDS011;1916;51.798;12.246;2022-12-24T13:06:25;8.50;;;3.10;;
3801;SDS011;1916;51.798;12.246;2022-12-24T13:12:57;7.97;;;2.70;;
3801;SDS011;1916;51.798;12.246;2022-12-24T13:20:10;4.13;;;3.30;;
3801;SDS011;1916;51.798;12.246;2022-12-24T13:22:21;6.13;;;3.13;;
3801;SDS011;1916;51.798;12.246;2022-12-24T13:24:24;4.50;;;3.00;;
3801;SDS011;1916;51.798;12.246;2022-12-24T13:26:28;5.17;;;2.97;;
3801;SDS011;1916;51.798;12.246;2022-12-24T13:28:31;4.80;;;3.20;;
3801;SDS011;1916;51.798;12.246;2022-12-24T13:30:38;7.67;;;3.20;;
3801;SDS011;1916;51.798;12.246;2022-12-24T13:32:51;7.90;;;3.83;;
3801;SDS011;1916;51.798;12.246;2022-12-24T13:37:03;3.70;;;2.37;;
3801;SDS011;1916;51.798;12.246;2022-12-24T13:39:08;5.70;;;2.23;;
3801;SDS011;1916;51.798;12.246;2022-12-24T13:46:44;5.40;;;2.63;;
3801;SDS011;1916;51.798;12.246;2022-12-24T13:48:52;4.87;;;2.50;;
3801;SDS011;1916;51.798;12.246;2022-12-24T13:50:54;2.80;;;2.10;;
3801;SDS011;1916;51.798;12.246;2022-12-24T13:52:57;7.43;;;2.50;;